Time;durP1;ratioP1;P1;durP2;ratioP2;P2;SDS_P1;SDS_P2;PMS_P1;PMS_P2;Temp;Humidity;BMP_temperature;BMP_pressure;BME280_temperature;BME280_humidity;BME280_pressure;Samples;Min_cycle;Max_cycle;Signal;HPM_P1;HPM_P2
2024/02/21 00:01:42;;;;;;;14.45;7.40;;;;;;;6.27;100.00;99939.78;5046654;28;20028;-96
2024/02/21 00:04:44;;;;;;;14.55;6.22;;;;;;;6.29;100.00;99929.16;5013705;28;20051;-96
2024/02/21 00:07:51;;;;;;;22.90;8.63;;;;;;;6.30;100.00;99920.31;5028479;28;20079;-96
2024/02/21 00:10:52;;;;;;;14.00;7.00;;;;;;;6.31;100.00;99924.59;5004469;28;20456;-96
2024/02/21 00:13:18;;;;;;;13.90;6.68;;;;;;;6.23;100.00;99916.53;4991816;28;20423;-96
2024/02/21 00:16:30;;;;;;;19.17;8.07;;;;;;;6.27;100.00;99908.28;5008502;28;20549;-96
2024/02/21 00:19:15;;;;;;;15.40;7.55;;;;;;;6.29;100.00;99902.91;4981335;28;20433;-96
2024/02/21 00:21:44;;;;;;;13.75;7.32;;;;;;;6.30;100.00;99884.41;4995510;28;20040;-96
2024/02/21 00:28:48;;;;;;;15.23;7.75;;;;;;;6.42;100.00;99850.16;4924240;28;20065;-96
2024/02/21 00:41:42;;;;;;;18.52;7.43;;;;;;;6.55;100.00;99813.19;4922594;28;20195;-96
2024/02/21 00:53:36;;;;;;;6.03;1.90;;;;;;;6.92;100.00;99778.44;5014495;28;20087;-96
2024/02/21 01:08:00;;;;;;;11.00;2.20;;;;;;;7.51;100.00;99714.47;4959337;28;20070;-96
2024/02/21 01:11:20;;;;;;;9.52;3.00;;;;;;;7.60;100.00;99704.88;4952959;28;20114;-96
2024/02/21 01:14:03;;;;;;;8.00;2.30;;;;;;;7.65;100.00;99700.03;4958818;28;20035;-96
2024/02/21 01:16:30;;;;;;;8.63;2.65;;;;;;;7.59;100.00;99682.19;4948410;28;20062;-96
2024/02/21 01:19:14;;;;;;;9.02;3.22;;;;;;;7.64;100.00;99681.75;4962670;28;20050;-96
2024/02/21 01:22:51;;;;;;;10.20;3.40;;;;;;;7.69;100.00;99664.56;5019768;28;20036;-96
2024/02/21 01:25:51;;;;;;;;;;;;;;;;;;;;;
2024/02/21 01:29:11;;;;;;;8.85;4.03;;;;;;;7.66;100.00;99637.75;4996473;28;20041;-96
2024/02/21 01:31:37;;;;;;;9.20;4.50;;;;;;;7.64;100.00;99631.78;5029109;28;20478;-95
2024/02/21 01:34:03;;;;;;;7.53;4.25;;;;;;;7.68;100.00;99620.81;5012435;28;20039;-96
2024/02/21 01:36:37;;;;;;;10.43;4.75;;;;;;;7.73;100.00;99603.78;5030777;28;20052;-96
2024/02/21 01:39:03;;;;;;;12.13;5.28;;;;;;;7.74;100.00;99592.28;5059795;28;20410;-96
2024/02/21 01:41:32;;;;;;;8.13;4.38;;;;;;;7.80;100.00;99574.09;5019904;28;20040;-96
2024/02/21 01:43:58;;;;;;;8.52;5.35;;;;;;;7.78;100.00;99554.19;5038387;28;20114;-96
2024/02/21 01:46:28;;;;;;;6.35;4.38;;;;;;;7.83;100.00;99536.16;5025114;28;20098;-96
2024/02/21 01:48:56;;;;;;;7.28;4.50;;;;;;;7.91;100.00;99524.88;5013362;28;20037;-96
2024/02/21 01:51:23;;;;;;;10.98;5.38;;;;;;;7.87;100.00;99518.28;5037376;28;20072;-96
2024/02/21 01:53:51;;;;;;;8.32;5.63;;;;;;;7.89;100.00;99509.25;5046570;28;20151;-96
2024/02/21 01:56:17;;;;;;;9.50;5.72;;;;;;;7.89;100.00;99490.00;5058996;28;20111;-96
2024/02/21 01:58:47;;;;;;;12.70;5.82;;;;;;;7.86;100.00;99482.41;5045493;28;20025;-96
2024/02/21 02:01:13;;;;;;;8.02;5.68;;;;;;;7.80;100.00;99458.34;5040643;28;20032;-96
2024/02/21 02:03:40;;;;;;;8.65;5.30;;;;;;;7.88;100.00;99457.63;5050121;28;20060;-96
2024/02/21 02:06:15;;;;;;;8.30;5.50;;;;;;;7.90;100.00;99445.09;5020428;28;20040;-96
2024/02/21 02:08:44;;;;;;;5.78;4.28;;;;;;;7.93;100.00;99441.38;5038355;28;20039;-96
2024/02/21 02:11:13;;;;;;;8.23;4.30;;;;;;;7.96;100.00;99434.97;5041642;28;20130;-96
2024/02/21 02:13:39;;;;;;;5.38;4.10;;;;;;;7.93;100.00;99431.66;5047199;28;20032;-96
2024/02/21 02:16:05;;;;;;;7.22;4.05;;;;;;;7.89;100.00;99408.44;5057661;28;20097;-96
2024/02/21 02:18:31;;;;;;;5.10;3.50;;;;;;;7.97;100.00;99400.59;5041095;28;20495;-96
2024/02/21 02:20:57;;;;;;;3.30;3.00;;;;;;;7.93;100.00;99389.53;5048200;28;20029;-96
2024/02/21 02:23:33;;;;;;;5.38;3.35;;;;;;;8.05;100.00;99384.03;5022812;28;20044;-96
2024/02/21 02:26:00;;;;;;;3.80;2.85;;;;;;;7.98;100.00;99359.34;5053984;28;20128;-96
2024/02/21 02:28:27;;;;;;;6.75;3.17;;;;;;;7.98;100.00;99351.44;5059986;28;20117;-96
2024/02/21 02:31:04;;;;;;;4.13;2.30;;;;;;;8.05;100.00;99342.78;5060438;28;20020;-96
2024/02/21 02:33:35;;;;;;;3.08;2.00;;;;;;;8.02;100.00;99316.75;5065122;28;20028;-96
2024/02/21 02:36:28;;;;;;;;;;;;;;;8.08;100.00;99302.16;5041086;28;20037;-96
2024/02/21 02:47:40;;;;;;;1.90;1.42;;;;;;;8.22;100.00;99240.19;5081859;22;20043;-95
2024/02/21 02:50:07;;;;;;;1.95;1.67;;;;;;;8.23;100.00;99238.38;5016102;28;20036;-95
2024/02/21 02:52:33;;;;;;;1.25;1.15;;;;;;;8.23;100.00;99219.97;5055337;28;20047;-96
2024/02/21 02:54:59;;;;;;;1.77;1.20;;;;;;;8.26;100.00;99202.03;5012714;28;20040;-95
2024/02/21 02:57:25;;;;;;;1.13;1.10;;;;;;;8.32;100.00;99184.78;5048693;28;20033;-96
2024/02/21 02:59:51;;;;;;;1.17;1.08;;;;;;;8.37;100.00;99171.97;5024927;28;20512;-95
2024/02/21 03:02:17;;;;;;;0.85;0.80;;;;;;;8.44;100.00;99172.13;5024125;28;20032;-94
2024/02/21 03:04:44;;;;;;;2.15;1.00;;;;;;;8.49;100.00;99159.28;5021142;28;20045;-95
2024/02/21 03:07:11;;;;;;;0.80;0.80;;;;;;;8.52;100.00;99147.63;5028717;28;20097;-94
2024/02/21 03:09:40;;;;;;;0.90;0.75;;;;;;;8.57;100.00;99132.16;5019397;28;20061;-94
2024/02/21 03:12:06;;;;;;;0.63;0.63;;;;;;;8.55;100.00;99121.00;5019883;28;20029;-94
2024/02/21 03:14:33;;;;;;;0.98;0.70;;;;;;;8.62;100.00;99106.16;5021693;28;20396;-94
2024/02/21 03:17:24;;;;;;;0.75;0.60;;;;;;;8.75;100.00;99076.69;5036049;28;20034;-94
2024/02/21 03:19:52;;;;;;;0.50;0.50;;;;;;;8.69;100.00;99074.72;5029363;28;20504;-95
2024/02/21 03:22:18;;;;;;;0.95;0.60;;;;;;;8.75;100.00;99073.22;5018481;28;20389;-95
2024/02/21 03:24:45;;;;;;;0.88;0.40;;;;;;;8.78;100.00;99052.66;5016796;28;20036;-95
2024/02/21 03:27:12;;;;;;;0.50;0.50;;;;;;;8.82;100.00;99045.25;5019992;28;20040;-95
2024/02/21 03:29:38;;;;;;;0.50;0.50;;;;;;;8.89;100.00;99042.72;5015941;28;20039;-95
2024/02/21 03:32:04;;;;;;;0.47;0.38;;;;;;;8.95;100.00;99033.34;5021516;28;20478;-94
2024/02/21 03:34:31;;;;;;;0.65;0.40;;;;;;;8.97;100.00;99005.00;5036637;28;20036;-94
2024/02/21 03:37:19;;;;;;;0.20;0.20;;;;;;;9.03;100.00;98999.88;5024105;28;20040;-95
2024/02/21 03:39:47;;;;;;;0.30;0.28;;;;;;;9.02;100.00;98986.88;5028149;28;20098;-94
2024/02/21 03:42:13;;;;;;;0.25;0.20;;;;;;;9.05;100.00;98982.09;5014946;28;20087;-96
2024/02/21 03:44:39;;;;;;;0.30;0.20;;;;;;;9.10;100.00;98970.19;5021395;28;20037;-96
2024/02/21 03:47:10;;;;;;;0.15;0.15;;;;;;;9.19;100.00;98956.00;5032668;28;20044;-94
2024/02/21 03:49:37;;;;;;;0.00;0.00;;;;;;;9.19;100.00;98945.44;5019047;28;20036;-94
2024/02/21 03:52:28;;;;;;;0.10;0.10;;;;;;;9.30;100.00;98931.06;5014039;28;20113;-94
2024/02/21 03:54:55;;;;;;;0.00;0.00;;;;;;;9.25;100.00;98909.66;5022599;28;20472;-94
2024/02/21 03:57:21;;;;;;;0.47;0.10;;;;;;;9.30;100.00;98899.44;5036542;28;20040;-94
2024/02/21 03:59:51;;;;;;;2.80;0.10;;;;;;;9.34;100.00;98891.97;5018875;28;20036;-94
2024/02/21 04:02:28;;;;;;;0.00;0.00;;;;;;;9.43;100.00;98894.38;5021884;28;20032;-94
2024/02/21 04:04:56;;;;;;;0.08;0.00;;;;;;;9.38;100.00;98866.91;5024291;28;20068;-96
2024/02/21 04:07:22;;;;;;;0.25;0.10;;;;;;;9.40;100.00;98859.63;5018387;28;20044;-94
2024/02/21 04:09:48;;;;;;;0.65;0.10;;;;;;;9.42;100.00;98855.00;5017377;28;20071;-95
2024/02/21 04:12:14;;;;;;;0.00;0.00;;;;;;;9.42;100.00;98845.28;5037722;28;20040;-95
2024/02/21 04:14:40;;;;;;;0.00;0.00;;;;;;;9.52;100.00;98860.06;5008546;28;20036;-94
2024/02/21 04:17:07;;;;;;;0.00;0.00;;;;;;;9.49;100.00;98834.84;5019071;28;20031;-95
2024/02/21 04:19:33;;;;;;;0.80;0.00;;;;;;;9.53;100.00;98836.13;5038021;28;20045;-94
2024/02/21 04:22:28;;;;;;;0.10;0.00;;;;;;;9.64;100.00;98820.88;5006350;28;20060;-95
2024/02/21 04:24:54;;;;;;;0.13;0.00;;;;;;;9.61;100.00;98815.94;5019417;28;20086;-95
2024/02/21 04:27:20;;;;;;;0.00;0.00;;;;;;;9.65;100.00;98796.16;5021734;28;20032;-94
2024/02/21 04:29:46;;;;;;;0.10;0.00;;;;;;;9.67;100.00;98799.41;5016090;28;20040;-94
2024/02/21 04:32:15;;;;;;;0.00;0.00;;;;;;;9.68;100.00;98782.59;5019371;28;20028;-95
2024/02/21 04:34:46;;;;;;;0.00;0.00;;;;;;;9.70;100.00;98771.88;5051491;28;20075;-96
2024/02/21 04:37:12;;;;;;;1.95;0.10;;;;;;;9.73;100.00;98748.56;5025068;28;20035;-96
2024/02/21 04:39:38;;;;;;;0.00;0.00;;;;;;;9.77;100.00;98709.44;5039457;28;20045;-95
2024/02/21 04:42:08;;;;;;;0.00;0.00;;;;;;;9.85;100.00;98703.25;5031758;28;20039;-95
2024/02/21 04:44:34;;;;;;;1.17;0.00;;;;;;;9.79;100.00;98715.38;5034157;28;20067;-95
2024/02/21 04:47:00;;;;;;;0.00;0.00;;;;;;;9.84;100.00;98709.53;5023280;28;20065;-96
2024/02/21 04:49:27;;;;;;;0.55;0.10;;;;;;;9.84;100.00;98709.53;5030167;28;20032;-96
2024/02/21 04:51:53;;;;;;;0.08;0.00;;;;;;;9.89;100.00;98689.50;5021475;28;20045;-95
2024/02/21 04:54:19;;;;;;;0.00;0.00;;;;;;;9.91;100.00;98684.03;5038238;28;20060;-95
2024/02/21 04:56:58;;;;;;;0.85;0.10;;;;;;;10.01;100.00;98670.56;5011648;28;20044;-96
2024/02/21 04:59:24;;;;;;;5.03;0.05;;;;;;;10.00;100.00;98661.03;5033993;28;20083;-94
2024/02/21 05:02:17;;;;;;;0.00;0.00;;;;;;;10.09;100.00;98648.53;5032877;28;20043;-94
2024/02/21 05:04:44;;;;;;;0.32;0.10;;;;;;;10.06;100.00;98647.09;5018623;28;20037;-93
2024/02/21 05:07:12;;;;;;;0.35;0.00;;;;;;;10.12;100.00;98641.06;5016989;28;20029;-95
2024/02/21 05:09:38;;;;;;;0.00;0.00;;;;;;;10.19;100.00;98622.66;5028806;28;20060;-95
2024/02/21 05:12:05;;;;;;;0.08;0.00;;;;;;;10.29;100.00;98630.25;5025272;28;20634;-96
2024/02/21 05:14:31;;;;;;;1.48;0.10;;;;;;;10.35;100.00;98621.56;5025377;28;20040;-93
2024/02/21 05:17:13;;;;;;;0.00;0.00;;;;;;;10.47;100.00;98600.81;5019707;28;20040;-95
2024/02/21 05:19:41;;;;;;;1.98;0.10;;;;;;;10.50;100.00;98579.28;5019220;28;20061;-96
2024/02/21 05:22:11;;;;;;;0.68;0.00;;;;;;;10.54;100.00;98577.09;5021146;28;20028;-94
2024/02/21 05:24:39;;;;;;;0.95;0.00;;;;;;;10.58;100.00;98567.78;5050219;28;20033;-94
2024/02/21 05:27:36;;;;;;;0.22;0.00;;;;;;;10.66;100.00;98572.09;5012503;28;20032;-96
2024/02/21 05:30:06;;;;;;;0.63;0.03;;;;;;;10.63;100.00;98569.84;5024360;28;20083;-95
2024/02/21 05:32:41;;;;;;;1.17;0.10;;;;;;;10.69;100.00;98560.34;5033534;28;20036;-95
2024/02/21 05:35:08;;;;;;;1.30;0.10;;;;;;;10.64;100.00;98534.47;5031518;28;20044;-95
2024/02/21 05:37:37;;;;;;;0.70;0.10;;;;;;;10.63;100.00;98517.00;5028747;28;20175;-95
2024/02/21 05:40:03;;;;;;;0.75;0.10;;;;;;;10.63;100.00;98504.63;5008116;28;20024;-94
2024/02/21 05:42:29;;;;;;;0.80;0.08;;;;;;;10.66;100.00;98495.47;5018399;28;20095;-94
2024/02/21 05:44:59;;;;;;;0.75;0.00;;;;;;;10.73;100.00;98488.44;5022929;28;20035;-95
2024/02/21 05:47:25;;;;;;;0.28;0.10;;;;;;;10.65;100.00;98472.72;5015200;28;20045;-95
2024/02/21 05:49:54;;;;;;;0.00;0.00;;;;;;;10.60;100.00;98462.72;5008678;28;20037;-95
2024/02/21 05:52:32;;;;;;;0.00;0.00;;;;;;;10.65;100.00;98464.78;5014354;28;20025;-94
2024/02/21 05:54:58;;;;;;;0.43;0.10;;;;;;;10.60;100.00;98453.97;5016116;28;20563;-94
2024/02/21 05:57:31;;;;;;;0.00;0.00;;;;;;;10.68;100.00;98448.56;5016807;28;20117;-95
2024/02/21 05:59:57;;;;;;;0.50;0.08;;;;;;;10.59;100.00;98431.22;5007637;28;20116;-94
2024/02/21 06:02:23;;;;;;;0.50;0.00;;;;;;;10.64;100.00;98423.50;5012909;28;20519;-96
2024/02/21 06:04:49;;;;;;;0.10;0.00;;;;;;;10.65;100.00;98396.91;5013962;28;20017;-94
2024/02/21 06:07:15;;;;;;;0.17;0.00;;;;;;;10.62;100.00;98384.06;5016900;28;20032;-95
2024/02/21 06:09:45;;;;;;;0.77;0.00;;;;;;;10.63;100.00;98391.00;5022052;28;20043;-95
2024/02/21 06:12:13;;;;;;;0.20;0.00;;;;;;;10.63;100.00;98374.34;5023426;28;20135;-95
2024/02/21 06:14:39;;;;;;;0.47;0.10;;;;;;;10.63;100.00;98383.09;4998248;28;20537;-94
2024/02/21 06:17:41;;;;;;;0.10;0.00;;;;;;;10.69;100.00;98360.34;5002514;28;20061;-96
2024/02/21 06:20:07;;;;;;;1.15;0.00;;;;;;;10.66;100.00;98371.31;5022942;28;20052;-94
2024/02/21 06:22:33;;;;;;;0.40;0.00;;;;;;;10.68;100.00;98366.66;5012670;28;20033;-95
2024/02/21 06:24:59;;;;;;;0.40;0.10;;;;;;;10.69;100.00;98373.53;5012409;28;20056;-95
2024/02/21 06:27:26;;;;;;;0.57;0.00;;;;;;;10.68;100.00;98361.34;5000734;28;20029;-96
2024/02/21 06:29:52;;;;;;;0.65;0.00;;;;;;;10.69;100.00;98338.41;5009811;28;20097;-95
2024/02/21 06:32:18;;;;;;;0.55;0.10;;;;;;;10.66;100.00;98329.84;5038459;28;20063;-94
2024/02/21 06:34:44;;;;;;;0.00;0.00;;;;;;;10.75;100.00;98346.34;5013840;28;20043;-93
2024/02/21 06:37:10;;;;;;;0.40;0.00;;;;;;;10.75;100.00;98346.34;5019259;28;20047;-96
2024/02/21 06:39:37;;;;;;;0.30;0.00;;;;;;;10.79;100.00;98330.91;5027587;28;20431;-96
2024/02/21 06:42:04;;;;;;;0.35;0.08;;;;;;;10.75;100.00;98322.56;5013609;28;20041;-96
2024/02/21 06:44:31;;;;;;;0.03;0.00;;;;;;;10.73;100.00;98300.00;5011967;28;20043;-95
2024/02/21 06:47:23;;;;;;;0.00;0.00;;;;;;;10.81;100.00;98281.31;5012751;28;20393;-95
2024/02/21 06:49:52;;;;;;;1.10;0.10;;;;;;;10.75;100.00;98288.19;5030846;28;20238;-96
2024/02/21 06:52:23;;;;;;;1.15;0.10;;;;;;;10.76;100.00;98278.47;5022687;28;20037;-94
2024/02/21 06:54:50;;;;;;;0.32;0.10;;;;;;;10.80;100.00;98292.88;5022975;28;20045;-94
2024/02/21 06:57:31;;;;;;;0.68;0.00;;;;;;;10.85;100.00;98276.44;5037017;28;20101;-96
2024/02/21 06:59:57;;;;;;;0.30;0.10;;;;;;;10.80;100.00;98258.53;5029100;28;20098;-95
2024/02/21 07:02:23;;;;;;;0.35;0.10;;;;;;;10.84;100.00;98274.81;5034816;28;20544;-95
2024/02/21 07:04:50;;;;;;;0.35;0.03;;;;;;;10.84;100.00;98254.50;5014837;28;20043;-94
2024/02/21 07:07:15;;;;;;;1.15;0.10;;;;;;;10.81;100.00;98269.94;5020667;28;20048;-95
2024/02/21 07:09:42;;;;;;;1.35;0.00;;;;;;;10.78;100.00;98253.44;5033469;28;20060;-94
2024/02/21 07:12:08;;;;;;;0.75;0.00;;;;;;;10.84;100.00;98265.06;5035242;28;20037;-93
2024/02/21 07:14:36;;;;;;;0.43;0.05;;;;;;;10.89;100.00;98267.09;5023280;28;20094;-93
2024/02/21 07:17:28;;;;;;;0.28;0.05;;;;;;;10.94;100.00;98256.72;5020606;28;20041;-93
2024/02/21 07:19:56;;;;;;;0.88;0.10;;;;;;;10.88;100.00;98257.53;5021748;28;20068;-95
2024/02/21 07:22:22;;;;;;;1.55;0.10;;;;;;;10.89;100.00;98232.75;5028149;28;20083;-95
2024/02/21 07:24:49;;;;;;;2.75;0.10;;;;;;;10.93;100.00;98239.25;5045545;28;20036;-96
2024/02/21 07:27:16;;;;;;;0.65;0.00;;;;;;;10.97;100.00;98224.63;5026518;28;20469;-95
2024/02/21 07:29:42;;;;;;;1.45;0.10;;;;;;;10.99;100.00;98203.28;5016099;28;20032;-95
2024/02/21 07:32:10;;;;;;;0.73;0.10;;;;;;;11.01;100.00;98225.84;5017413;28;20032;-94
2024/02/21 07:34:39;;;;;;;0.68;0.10;;;;;;;11.04;100.00;98220.16;5012906;28;20036;-94
2024/02/21 07:37:25;;;;;;;0.00;0.00;;;;;;;11.04;100.00;98217.50;5016499;28;20041;-94
2024/02/21 07:39:51;;;;;;;0.75;0.10;;;;;;;11.02;100.00;98229.31;5042505;28;20508;-93
2024/02/21 07:42:17;;;;;;;0.17;0.10;;;;;;;11.02;100.00;98218.75;5025869;28;20067;-94
2024/02/21 07:44:46;;;;;;;0.00;0.00;;;;;;;11.06;100.00;98211.19;5016704;28;20496;-94
2024/02/21 07:47:13;;;;;;;10.70;0.30;;;;;;;11.07;100.00;98194.34;5025501;28;20048;-94
2024/02/21 07:49:48;;;;;;;0.60;0.08;;;;;;;11.12;100.00;98189.22;5020768;28;20036;-93
2024/02/21 07:52:14;;;;;;;0.00;0.00;;;;;;;11.08;100.00;98190.66;5011862;28;20505;-94
2024/02/21 07:54:41;;;;;;;0.90;0.00;;;;;;;11.10;100.00;98189.44;5024625;28;20178;-95
2024/02/21 07:57:10;;;;;;;5.68;0.20;;;;;;;11.13;100.00;98186.38;5013365;28;20120;-95
2024/02/21 07:59:37;;;;;;;0.35;0.00;;;;;;;11.15;100.00;98180.91;5021486;28;20039;-95
2024/02/21 08:02:34;;;;;;;1.25;0.10;;;;;;;11.20;100.00;98178.47;5026933;28;20076;-95
2024/02/21 08:05:01;;;;;;;0.30;0.00;;;;;;;11.15;100.00;98170.31;5049094;28;20037;-95
2024/02/21 08:07:28;;;;;;;0.00;0.00;;;;;;;11.15;100.00;98179.06;5046601;28;20040;-95
2024/02/21 08:09:54;;;;;;;1.85;0.00;;;;;;;11.17;100.00;98163.00;5034406;28;20123;-94
2024/02/21 08:12:21;;;;;;;0.38;0.10;;;;;;;11.18;100.00;98154.03;5021349;28;20068;-94
2024/02/21 08:14:48;;;;;;;0.57;0.00;;;;;;;11.19;100.00;98165.44;5036175;28;20044;-95
2024/02/21 08:17:13;;;;;;;0.00;0.00;;;;;;;11.21;100.00;98164.22;5023969;28;20086;-95
2024/02/21 08:19:39;;;;;;;0.47;0.13;;;;;;;11.23;100.00;98169.28;5041789;28;20036;-96
2024/02/21 08:22:37;;;;;;;1.17;0.10;;;;;;;11.33;100.00;98164.41;5020907;28;20036;-96
2024/02/21 08:25:05;;;;;;;0.00;0.00;;;;;;;11.29;100.00;98157.91;5009438;28;20037;-95
2024/02/21 08:27:45;;;;;;;0.75;0.03;;;;;;;11.35;100.00;98156.28;5052602;23;20054;-92
2024/02/21 08:30:47;;;;;;;0.10;0.10;;;;;;;11.33;100.00;98156.47;5081945;27;20043;-92
2024/02/21 08:34:18;;;;;;;0.52;0.10;;;;;;;11.45;100.00;98169.09;5260115;22;20569;-94
2024/02/21 08:37:20;;;;;;;0.28;0.10;;;;;;;11.47;100.00;98165.19;5057901;28;20036;-94
2024/02/21 08:40:08;;;;;;;0.10;0.10;;;;;;;11.45;100.00;98161.94;5054693;28;20032;-91
2024/02/21 08:46:49;;;;;;;0.20;0.10;;;;;;;11.50;100.00;98167.44;5071090;28;20035;-92
2024/02/21 08:50:10;;;;;;;1.73;0.10;;;;;;;11.60;100.00;98184.69;5088160;28;20031;-93
2024/02/21 09:00:28;;;;;;;0.03;0.00;;;;;;;11.70;100.00;98208.09;5005855;28;20038;-94
2024/02/21 09:03:25;;;;;;;1.02;0.00;;;;;;;11.73;100.00;98197.91;4977509;28;20117;-94
2024/02/21 09:15:24;;;;;;;0.00;0.00;;;;;;;11.76;100.00;98212.56;4899226;29;20085;-94
2024/02/21 09:18:38;;;;;;;0.00;0.00;;;;;;;11.79;100.00;98226.19;4920198;29;20452;-95
2024/02/21 09:22:15;;;;;;;0.00;0.00;;;;;;;11.86;100.00;98231.47;4904630;29;20052;-94
2024/02/21 09:25:46;;;;;;;;;;;;;;;11.83;100.00;98228.44;4899939;29;20094;-92
2024/02/21 09:29:22;;;;;;;0.95;0.10;;;;;;;11.89;100.00;98227.59;4958342;28;19914;-93
2024/02/21 09:33:06;;;;;;;0.20;0.10;;;;;;;11.98;100.00;98230.81;4955618;28;20039;-94
2024/02/21 09:36:31;;;;;;;0.00;0.00;;;;;;;12.02;100.00;98240.00;5034217;28;20497;-93
2024/02/21 09:40:07;;;;;;;;;;;;;;;;;;;;;
2024/02/21 09:44:09;;;;;;;1.05;0.10;;;;;;;12.10;100.00;98245.09;5028174;28;20037;-92
2024/02/21 09:47:06;;;;;;;0.77;0.20;;;;;;;12.11;100.00;98230.00;5035025;28;20484;-92
2024/02/21 09:49:51;;;;;;;;;;;;;;;;;;;;;
2024/02/21 09:53:09;;;;;;;2.47;0.40;;;;;;;12.06;100.00;98240.38;5101618;28;20063;-91
2024/02/21 10:10:59;;;;;;;1.38;0.17;;;;;;;12.09;100.00;98285.81;4945770;28;20050;-94
2024/02/21 10:14:07;;;;;;;1.08;0.15;;;;;;;12.11;100.00;98302.31;4958613;28;20042;-94
2024/02/21 10:16:44;;;;;;;4.55;0.13;;;;;;;12.10;100.00;98303.34;4958204;28;20065;-94
2024/02/21 10:19:31;;;;;;;1.85;0.20;;;;;;;12.06;100.00;98310.03;4989929;28;20099;-93
2024/02/21 10:22:28;;;;;;;;;;;;;;;;;;;;;
2024/02/21 10:25:10;;;;;;;0.77;0.10;;;;;;;11.95;100.00;98308.84;5082206;28;20045;-92
2024/02/21 10:27:41;;;;;;;1.77;0.30;;;;;;;11.96;100.00;98325.53;5058467;28;20043;-93
2024/02/21 10:30:15;;;;;;;1.67;0.22;;;;;;;12.05;100.00;98337.53;5062699;28;20042;-92
2024/02/21 10:32:57;;;;;;;3.45;0.40;;;;;;;12.07;100.00;98329.38;5080279;28;20544;-94
2024/02/21 10:35:45;;;;;;;0.90;0.20;;;;;;;12.06;100.00;98320.63;5070966;28;20044;-92
2024/02/21 10:38:22;;;;;;;1.88;0.30;;;;;;;12.09;100.00;98325.53;5072588;28;20044;-93
2024/02/21 10:41:16;;;;;;;1.77;0.40;;;;;;;12.06;100.00;98317.16;5062626;28;20044;-93
2024/02/21 10:47:39;;;;;;;1.45;0.20;;;;;;;12.09;100.00;98340.63;5083791;28;20036;-91
2024/02/21 10:50:23;;;;;;;2.28;0.28;;;;;;;12.17;100.00;98361.56;5061543;28;20032;-92
2024/02/21 10:54:10;;;;;;;4.00;0.50;;;;;;;12.12;100.00;98362.19;5078852;28;20082;-92
2024/02/21 10:56:49;;;;;;;4.13;1.33;;;;;;;12.02;100.00;98351.97;5067515;28;20024;-93
2024/02/21 10:59:41;;;;;;;5.38;0.40;;;;;;;12.04;100.00;98365.00;5078532;28;20043;-92
2024/02/21 11:02:18;;;;;;;5.55;0.65;;;;;;;11.96;100.00;98357.31;5073608;28;20044;-93
2024/02/21 11:05:22;;;;;;;8.63;0.75;;;;;;;11.90;100.00;98361.56;5074031;28;20122;-93
2024/02/21 11:07:54;;;;;;;3.38;0.60;;;;;;;11.81;100.00;98360.16;5059895;28;20036;-93
2024/02/21 11:10:26;;;;;;;5.45;0.80;;;;;;;11.85;100.00;98380.72;5059635;28;20032;-92
2024/02/21 11:13:10;;;;;;;5.13;0.65;;;;;;;11.83;100.00;98387.25;5067032;28;20648;-93
2024/02/21 11:15:50;;;;;;;1.98;0.20;;;;;;;11.77;100.00;98400.25;5062573;28;20043;-94
2024/02/21 11:18:27;;;;;;;1.70;0.40;;;;;;;11.76;100.00;98397.81;5060262;28;20493;-92
2024/02/21 11:21:05;;;;;;;3.72;0.57;;;;;;;11.75;100.00;98389.06;5065001;28;20555;-93
2024/02/21 11:23:38;;;;;;;6.63;0.77;;;;;;;11.68;100.00;98406.78;5060327;28;20078;-92
2024/02/21 11:26:07;;;;;;;5.75;0.95;;;;;;;11.72;100.00;98409.84;5077390;28;20032;-94
2024/02/21 11:28:44;;;;;;;6.05;0.98;;;;;;;11.84;100.00;98410.03;5060113;28;20036;-93
2024/02/21 11:31:18;;;;;;;5.32;0.88;;;;;;;11.80;100.00;98412.28;5062342;28;20036;-92
2024/02/21 11:33:50;;;;;;;10.73;0.80;;;;;;;11.78;100.00;98420.41;5058277;28;20036;-92
2024/02/21 11:36:56;;;;;;;5.80;0.90;;;;;;;11.84;100.00;98400.28;5062535;28;20111;-93
2024/02/21 11:39:29;;;;;;;6.25;0.47;;;;;;;11.87;100.00;98423.69;5070430;28;20480;-92
2024/02/21 11:42:19;;;;;;;4.93;0.63;;;;;;;11.92;100.00;98438.97;5074980;28;20488;-95
2024/02/21 11:44:50;;;;;;;7.20;0.65;;;;;;;11.95;100.00;98445.66;5071631;28;20028;-94
2024/02/21 11:51:03;;;;;;;9.90;0.80;;;;;;;12.00;100.00;98459.94;5076236;28;20050;-93
2024/02/21 11:53:35;;;;;;;3.97;0.80;;;;;;;12.01;100.00;98466.03;5056745;28;20127;-94
2024/02/21 11:56:02;;;;;;;8.50;1.17;;;;;;;12.04;100.00;98473.56;5055974;28;20048;-93
2024/02/21 11:58:33;;;;;;;6.50;0.73;;;;;;;12.17;100.00;98480.75;5085643;28;20058;-94
2024/02/21 12:01:02;;;;;;;7.82;0.98;;;;;;;12.21;100.00;98481.16;5055208;28;20028;-94
2024/02/21 12:03:31;;;;;;;6.30;1.00;;;;;;;12.36;100.00;98484.41;5060180;28;20097;-95
2024/02/21 12:06:29;;;;;;;4.45;0.57;;;;;;;12.49;100.00;98477.47;5068655;28;20047;-94
2024/02/21 12:09:04;;;;;;;8.93;1.08;;;;;;;12.48;100.00;98481.97;5059577;28;20424;-95
2024/02/21 12:11:39;;;;;;;9.23;1.00;;;;;;;12.41;100.00;98478.50;5072699;28;20523;-91
2024/02/21 12:14:10;;;;;;;5.30;1.08;;;;;;;12.42;100.00;98480.16;5071277;28;20123;-93
2024/02/21 12:16:53;;;;;;;5.40;0.63;;;;;;;12.28;100.00;98472.19;5063461;28;20063;-94
2024/02/21 12:19:46;;;;;;;4.68;0.73;;;;;;;12.23;100.00;98479.13;5059723;28;20081;-91
2024/02/21 12:22:36;;;;;;;5.40;0.68;;;;;;;12.24;100.00;98491.34;5069359;28;20046;-91
2024/02/21 12:25:30;;;;;;;3.55;0.73;;;;;;;12.16;100.00;98481.78;5084538;28;20036;-90
2024/02/21 12:28:12;;;;;;;3.85;0.82;;;;;;;12.16;100.00;98481.78;5076706;28;20081;-94
2024/02/21 12:30:43;;;;;;;5.40;0.60;;;;;;;12.25;100.00;98477.91;5060847;28;20032;-92
2024/02/21 12:33:15;;;;;;;7.85;0.73;;;;;;;12.31;100.00;98464.88;5075957;28;20553;-94
2024/02/21 12:35:54;;;;;;;6.97;0.47;;;;;;;12.27;100.00;98472.41;5098519;28;20051;-94
2024/02/21 12:38:39;;;;;;;5.28;0.95;;;;;;;12.24;100.00;98475.47;5053795;28;20040;-93
2024/02/21 12:41:14;;;;;;;4.18;0.68;;;;;;;12.20;100.00;98474.25;5069217;28;20035;-95
2024/02/21 12:44:21;;;;;;;4.90;0.63;;;;;;;12.16;100.00;98476.47;5079368;28;20102;-95
2024/02/21 12:46:53;;;;;;;5.80;0.90;;;;;;;12.06;100.00;98471.56;5048719;28;20522;-92
2024/02/21 12:49:36;;;;;;;4.72;0.70;;;;;;;12.07;100.00;98475.03;5059998;28;20036;-93
2024/02/21 12:52:03;;;;;;;3.85;0.70;;;;;;;12.03;100.00;98474.59;5062192;28;20050;-92
2024/02/21 12:54:32;;;;;;;5.95;1.00;;;;;;;12.06;100.00;98473.38;5057591;28;20039;-94
2024/02/21 12:57:38;;;;;;;4.57;0.70;;;;;;;12.06;100.00;98471.56;5063363;28;20391;-94
2024/02/21 13:00:26;;;;;;;4.50;0.70;;;;;;;12.03;100.00;98466.66;5047995;28;20044;-93
2024/02/21 13:03:26;;;;;;;3.15;0.63;;;;;;;11.94;100.00;98459.94;5084341;28;20063;-94
2024/02/21 13:05:54;;;;;;;5.97;0.70;;;;;;;11.74;100.00;98468.66;5076152;28;20533;-94
2024/02/21 13:08:34;;;;;;;3.08;0.30;;;;;;;11.70;100.00;98468.25;5067225;28;20036;-91
2024/02/21 13:11:01;;;;;;;5.35;0.38;;;;;;;11.65;100.00;98479.44;5090120;28;20039;-94
2024/02/21 13:13:27;;;;;;;2.00;0.40;;;;;;;11.62;100.00;98482.50;5076990;28;20036;-93
2024/02/21 13:16:00;;;;;;;5.05;0.93;;;;;;;11.50;100.00;98484.06;5078389;28;20059;-93
2024/02/21 13:18:29;;;;;;;4.97;1.00;;;;;;;11.28;100.00;98484.19;5077698;28;20374;-94
2024/02/21 13:21:00;;;;;;;5.40;0.80;;;;;;;11.17;100.00;98493.53;5070916;28;20036;-94
2024/02/21 13:23:51;;;;;;;;;;;;;;;;;;;;;
2024/02/21 13:26:27;;;;;;;6.20;0.93;;;;;;;11.18;100.00;98495.13;5082971;28;20383;-93
2024/02/21 13:28:57;;;;;;;5.57;1.15;;;;;;;11.15;100.00;98487.59;5090732;28;20786;-92
2024/02/21 13:32:01;;;;;;;10.30;1.25;;;;;;;11.03;100.00;98488.19;5091669;28;20118;-94
2024/02/21 13:34:33;;;;;;;8.80;1.10;;;;;;;11.06;100.00;98478.22;5074685;28;20606;-95
2024/02/21 13:37:13;;;;;;;6.15;0.90;;;;;;;11.07;100.00;98479.84;5055196;28;20089;-94
2024/02/21 13:40:21;;;;;;;9.10;1.13;;;;;;;11.06;100.00;98488.78;5106920;28;20043;-91
2024/02/21 13:42:51;;;;;;;11.63;1.13;;;;;;;11.00;100.00;98474.53;5063196;28;20038;-90
2024/02/21 13:45:23;;;;;;;8.82;0.93;;;;;;;11.06;100.00;98465.81;5078267;28;20685;-95
2024/02/21 13:48:01;;;;;;;8.50;1.05;;;;;;;11.04;100.00;98471.31;5060987;28;20032;-95
2024/02/21 13:51:06;;;;;;;9.23;1.00;;;;;;;11.15;100.00;98477.03;5063514;28;20130;-94